Time;durP1;ratioP1;P1;durP2;ratioP2;P2;SDS_P1;SDS_P2;PMS_P1;PMS_P2;Temp;Humidity;BMP_temperature;BMP_pressure;BME280_temperature;BME280_humidity;BME280_pressure;Samples;Min_cycle;Max_cycle;Signal;HPM_P1;HPM_P2
2021/01/24 00:00:51;;;;;;;4.18;2.78;;;;;;;1.95;nan;94204.56;5016911;28;20320;-46
2021/01/24 00:03:18;;;;;;;2.17;1.98;;;;;;;1.99;nan;94205.97;5018069;28;20276;-44
2021/01/24 00:05:46;;;;;;;3.05;2.40;;;;;;;1.94;nan;94207.22;5017822;28;20212;-46
2021/01/24 00:08:13;;;;;;;3.65;2.45;;;;;;;1.99;nan;94197.47;5017512;28;20212;-45
2021/01/24 00:10:41;;;;;;;2.70;2.30;;;;;;;2.01;nan;94206.72;5018575;28;20285;-46
2021/01/24 00:13:09;;;;;;;4.88;3.00;;;;;;;2.02;nan;94203.22;5019909;28;20232;-45
2021/01/24 00:15:36;;;;;;;2.90;2.60;;;;;;;2.05;nan;94200.44;5015188;28;20323;-44
2021/01/24 00:18:03;;;;;;;3.10;2.30;;;;;;;2.18;nan;94201.25;5019299;28;20455;-44
2021/01/24 00:20:30;;;;;;;2.63;2.20;;;;;;;2.17;nan;94212.44;5017361;28;21026;-44
2021/01/24 00:22:56;;;;;;;3.17;2.35;;;;;;;2.31;nan;94222.59;5019050;28;20646;-45
2021/01/24 00:25:24;;;;;;;3.92;2.88;;;;;;;2.43;nan;94206.31;5017627;28;20220;-46
2021/01/24 00:27:55;;;;;;;5.53;2.80;;;;;;;2.49;nan;94199.97;5017760;28;20244;-44
2021/01/24 00:30:22;;;;;;;3.40;2.30;;;;;;;2.49;nan;94207.69;5016370;28;20340;-44
2021/01/24 00:32:49;;;;;;;2.38;2.17;;;;;;;2.32;nan;94201.13;5018831;28;20188;-44
2021/01/24 00:35:19;;;;;;;2.70;2.15;;;;;;;2.26;nan;94209.25;5016329;28;20699;-44
2021/01/24 00:37:47;;;;;;;2.67;2.03;;;;;;;2.19;nan;94208.00;5025047;28;20656;-44
2021/01/24 00:40:14;;;;;;;2.45;1.50;;;;;;;2.18;nan;94196.13;5023644;28;20254;-44
2021/01/24 00:42:42;;;;;;;2.70;2.03;;;;;;;2.17;nan;94199.63;5023112;28;20228;-46
2021/01/24 00:45:11;;;;;;;2.30;1.50;;;;;;;2.09;nan;94191.63;5024302;28;21009;-44
2021/01/24 00:47:37;;;;;;;2.05;1.88;;;;;;;2.04;nan;94193.66;5019991;28;20283;-46
2021/01/24 00:50:06;;;;;;;4.53;1.95;;;;;;;1.99;nan;94203.41;5018723;28;20255;-44
2021/01/24 00:52:32;;;;;;;3.70;1.77;;;;;;;1.98;nan;94206.09;5019980;28;20266;-44
2021/01/24 00:54:59;;;;;;;2.22;1.55;;;;;;;1.96;nan;94201.06;5021598;28;20228;-46
2021/01/24 00:57:26;;;;;;;1.95;1.75;;;;;;;1.96;nan;94203.63;5019515;28;20204;-45
2021/01/24 00:59:53;;;;;;;1.48;1.35;;;;;;;1.93;nan;94211.50;5017880;28;20669;-45
2021/01/24 01:02:21;;;;;;;2.35;1.60;;;;;;;1.95;nan;94208.84;5020486;28;20192;-43
2021/01/24 01:04:48;;;;;;;1.60;1.50;;;;;;;1.96;nan;94211.31;5019739;28;20197;-44
2021/01/24 01:07:14;;;;;;;1.65;1.35;;;;;;;2.05;nan;94209.88;5019801;28;20683;-44
2021/01/24 01:09:41;;;;;;;1.60;1.02;;;;;;;1.98;nan;94206.09;5020528;28;20858;-45
2021/01/24 01:12:09;;;;;;;1.13;1.02;;;;;;;2.02;nan;94215.22;5017925;28;20882;-46
2021/01/24 01:14:36;;;;;;;1.40;1.15;;;;;;;1.96;nan;94220.75;5017928;28;20595;-44
2021/01/24 01:17:46;;;;;;;2.40;1.17;;;;;;;1.35;nan;94118.94;5018844;28;20647;-46
2021/01/24 01:20:18;;;;;;;1.33;0.75;;;;;;;1.97;nan;94217.25;5018021;28;20235;-45
2021/01/24 01:26:16;;;;;;;0.85;0.80;;;;;;;1.92;nan;94209.06;5014152;28;20707;-44
2021/01/24 01:28:46;;;;;;;1.33;1.00;;;;;;;1.89;nan;94215.22;5019809;28;20236;-44
2021/01/24 01:31:19;;;;;;;1.30;0.98;;;;;;;1.94;nan;94220.88;5016609;28;20683;-44
2021/01/24 01:33:46;;;;;;;1.20;0.85;;;;;;;1.90;nan;94221.97;5020959;28;20627;-45
2021/01/24 01:36:14;;;;;;;1.10;0.70;;;;;;;1.92;nan;94224.44;5015937;28;20620;-45
2021/01/24 01:38:50;;;;;;;0.95;0.70;;;;;;;1.95;nan;94224.22;5018022;28;20226;-45
2021/01/24 01:41:17;;;;;;;1.15;0.60;;;;;;;2.00;nan;94233.25;5017311;28;20228;-45
2021/01/24 01:43:44;;;;;;;0.90;0.80;;;;;;;2.00;nan;94227.31;5016685;28;20686;-45
2021/01/24 01:46:19;;;;;;;0.80;0.60;;;;;;;2.01;nan;94234.09;5017325;28;20320;-45
2021/01/24 01:48:46;;;;;;;1.05;0.65;;;;;;;1.98;nan;94227.41;5021495;28;20592;-44
2021/01/24 01:51:15;;;;;;;2.00;0.98;;;;;;;2.00;nan;94233.25;5026285;28;20244;-45
2021/01/24 01:53:43;;;;;;;1.88;0.75;;;;;;;1.99;nan;94226.50;5020239;28;20333;-46
2021/01/24 01:56:09;;;;;;;0.63;0.55;;;;;;;1.95;nan;94237.91;5020646;28;20695;-46
2021/01/24 01:58:36;;;;;;;0.95;0.60;;;;;;;1.95;nan;94262.69;5018224;28;20303;-44
2021/01/24 02:01:07;;;;;;;1.33;0.68;;;;;;;1.69;nan;94253.38;5018666;28;20286;-44
2021/01/24 02:03:50;;;;;;;0.60;0.50;;;;;;;1.73;nan;94281.25;5018757;28;20294;-44
2021/01/24 02:06:24;;;;;;;0.50;0.40;;;;;;;1.60;nan;94277.00;5016775;28;20278;-44
2021/01/24 02:08:59;;;;;;;0.60;0.50;;;;;;;1.52;nan;94298.00;5022832;28;20311;-46
2021/01/24 02:11:35;;;;;;;0.60;0.40;;;;;;;1.44;nan;94295.13;5025291;23;20326;-72
2021/01/24 02:14:15;;;;;;;0.60;0.50;;;;;;;1.44;nan;94310.50;5012473;28;20286;-71
2021/01/24 02:16:44;;;;;;;0.60;0.40;;;;;;;1.40;nan;94305.66;5013365;28;20836;-71
2021/01/24 02:19:20;;;;;;;0.55;0.40;;;;;;;1.36;nan;94317.84;5014757;28;20288;-71
2021/01/24 02:21:50;;;;;;;0.70;0.55;;;;;;;1.38;nan;94321.13;5016009;28;20654;-71
2021/01/24 02:24:18;;;;;;;0.70;0.47;;;;;;;1.35;nan;94321.34;5014172;28;20284;-70
2021/01/24 02:26:52;;;;;;;0.80;0.50;;;;;;;1.34;nan;94319.66;5013952;28;20224;-71
2021/01/24 02:29:25;;;;;;;0.70;0.50;;;;;;;1.35;nan;94320.50;5014468;28;20295;-71
2021/01/24 02:31:53;;;;;;;0.70;0.70;;;;;;;1.35;nan;94323.91;5014782;28;20598;-71
2021/01/24 02:34:23;;;;;;;0.82;0.60;;;;;;;1.38;nan;94333.94;5015279;28;20236;-71
2021/01/24 02:36:51;;;;;;;1.13;0.80;;;;;;;1.41;nan;94328.59;5018139;28;20333;-71
2021/01/24 02:39:19;;;;;;;1.25;0.70;;;;;;;1.41;nan;94335.50;5015590;28;20239;-70
2021/01/24 02:41:50;;;;;;;0.65;0.60;;;;;;;1.42;nan;94348.19;5015552;28;20609;-71
2021/01/24 02:44:17;;;;;;;1.15;0.90;;;;;;;1.46;nan;94344.53;5013907;28;20200;-71
2021/01/24 02:46:44;;;;;;;0.60;0.50;;;;;;;1.46;nan;94343.69;5015525;28;20273;-71
2021/01/24 02:49:14;;;;;;;1.50;1.10;;;;;;;1.46;nan;94349.66;5013304;28;20666;-71
2021/01/24 02:51:42;;;;;;;1.20;0.98;;;;;;;1.51;nan;94352.75;5015340;28;20255;-71
2021/01/24 02:54:10;;;;;;;1.30;1.00;;;;;;;1.49;nan;94353.75;5013142;28;20254;-72
2021/01/24 02:56:38;;;;;;;1.30;0.93;;;;;;;1.49;nan;94381.94;5015905;28;20321;-71
2021/01/24 02:59:05;;;;;;;3.03;0.85;;;;;;;1.48;nan;94388.81;5013320;28;20228;-70
2021/01/24 03:01:32;;;;;;;1.10;1.00;;;;;;;1.44;nan;94386.53;5013452;28;20266;-71
2021/01/24 03:03:59;;;;;;;3.03;1.05;;;;;;;1.41;nan;94387.53;5014102;28;20606;-71
2021/01/24 03:06:27;;;;;;;1.30;0.95;;;;;;;1.32;nan;94403.50;5016440;28;20308;-70
2021/01/24 03:08:54;;;;;;;2.78;1.15;;;;;;;1.27;nan;94395.25;5023058;28;20251;-71
2021/01/24 03:11:22;;;;;;;2.97;1.48;;;;;;;1.28;nan;94412.28;5015422;28;20232;-68
2021/01/24 03:13:54;;;;;;;2.30;1.77;;;;;;;1.24;nan;94415.94;5014302;28;20671;-69
2021/01/24 03:16:22;;;;;;;4.15;2.22;;;;;;;1.24;nan;94426.19;5015141;28;20248;-69
2021/01/24 03:18:51;;;;;;;3.65;2.22;;;;;;;1.21;nan;94426.41;5013600;28;20280;-68
2021/01/24 03:21:20;;;;;;;2.95;1.42;;;;;;;1.22;nan;94425.47;5015800;28;20252;-71
2021/01/24 03:23:48;;;;;;;4.75;2.17;;;;;;;1.11;nan;94438.09;5015887;28;20269;-69
2021/01/24 03:26:15;;;;;;;4.13;2.00;;;;;;;1.03;nan;94437.72;5013960;28;20576;-69
2021/01/24 03:28:42;;;;;;;4.32;2.38;;;;;;;0.96;nan;94445.88;5012487;28;20250;-69
2021/01/24 03:31:09;;;;;;;3.40;2.10;;;;;;;0.93;nan;94452.00;5013756;28;20730;-70
2021/01/24 03:33:38;;;;;;;1.55;1.45;;;;;;;0.91;nan;94451.28;5014251;28;20654;-70
2021/01/24 03:36:06;;;;;;;5.57;2.45;;;;;;;0.85;nan;94464.44;5015246;28;20595;-70
2021/01/24 03:38:32;;;;;;;4.95;3.10;;;;;;;0.85;nan;94459.31;5011885;28;20917;-69
2021/01/24 03:41:00;;;;;;;5.97;1.90;;;;;;;0.83;nan;94481.59;5014117;28;20662;-69
2021/01/24 03:43:27;;;;;;;3.08;2.17;;;;;;;0.79;nan;94485.28;5013374;28;20239;-70
2021/01/24 03:45:54;;;;;;;7.30;2.35;;;;;;;0.77;nan;94499.06;5015822;28;20324;-69
2021/01/24 03:48:21;;;;;;;3.13;1.77;;;;;;;0.74;nan;94497.50;5016551;28;20584;-69
2021/01/24 03:50:48;;;;;;;2.65;1.30;;;;;;;0.73;nan;94503.53;5013151;28;20674;-69
2021/01/24 03:53:15;;;;;;;2.40;1.50;;;;;;;0.68;nan;94513.22;5014006;28;20596;-69
2021/01/24 03:55:42;;;;;;;3.15;1.45;;;;;;;0.58;nan;94512.09;5014959;28;20625;-70
2021/01/24 03:58:10;;;;;;;6.50;2.65;;;;;;;0.56;nan;94529.28;5016117;28;20235;-69
2021/01/24 04:00:37;;;;;;;1.77;1.25;;;;;;;0.57;nan;94519.84;5013793;28;20614;-69
2021/01/24 04:03:04;;;;;;;2.03;1.65;;;;;;;0.41;nan;94504.56;5013142;28;20755;-69
2021/01/24 04:05:31;;;;;;;3.63;1.90;;;;;;;0.64;nan;94531.41;5013183;28;20685;-70
2021/01/24 04:07:57;;;;;;;7.25;1.60;;;;;;;0.65;nan;94528.75;5010314;28;20867;-69
2021/01/24 04:10:25;;;;;;;2.38;1.25;;;;;;;0.66;nan;94545.75;5008496;28;20248;-69
2021/01/24 04:12:52;;;;;;;3.25;1.90;;;;;;;0.64;nan;94532.22;5014010;28;20700;-69
2021/01/24 04:15:19;;;;;;;4.05;1.60;;;;;;;0.67;nan;94557.63;5015548;28;20238;-70
2021/01/24 04:17:46;;;;;;;1.45;1.10;;;;;;;0.67;nan;94549.97;5016546;28;20734;-69
2021/01/24 04:20:13;;;;;;;1.42;1.33;;;;;;;0.66;nan;94573.91;5016617;28;20232;-69
2021/01/24 04:22:41;;;;;;;1.33;1.15;;;;;;;0.44;nan;94524.84;5017714;28;20224;-72
2021/01/24 04:25:11;;;;;;;3.17;1.58;;;;;;;0.66;nan;94576.47;5017833;28;20524;-72
2021/01/24 04:27:38;;;;;;;5.07;1.50;;;;;;;0.62;nan;94576.72;5018134;28;20574;-69
2021/01/24 04:30:06;;;;;;;2.65;1.60;;;;;;;0.53;nan;94565.25;5017058;28;20485;-69
2021/01/24 04:32:34;;;;;;;2.20;1.20;;;;;;;0.55;nan;94573.69;5014602;28;20312;-68
2021/01/24 04:35:01;;;;;;;2.33;1.38;;;;;;;0.53;nan;94574.69;5017964;28;20223;-69
2021/01/24 04:37:28;;;;;;;2.67;1.58;;;;;;;0.56;nan;94587.31;5019527;28;20650;-68
2021/01/24 04:39:55;;;;;;;2.35;1.10;;;;;;;0.57;nan;94596.63;5017932;28;20659;-71
2021/01/24 04:42:22;;;;;;;1.73;1.10;;;;;;;0.52;nan;94586.66;5017720;28;20280;-70
2021/01/24 04:44:50;;;;;;;4.82;1.60;;;;;;;0.54;nan;94587.38;5018823;28;20623;-69
2021/01/24 04:47:18;;;;;;;4.20;1.23;;;;;;;0.55;nan;94591.63;5017775;28;20781;-70
2021/01/24 04:49:46;;;;;;;2.85;0.95;;;;;;;0.56;nan;94584.75;5018219;28;20216;-69
2021/01/24 04:52:13;;;;;;;3.85;0.77;;;;;;;0.53;nan;94595.97;5017476;28;20220;-70
2021/01/24 04:54:42;;;;;;;2.20;1.40;;;;;;;0.54;nan;94592.50;5018119;28;20577;-69
2021/01/24 04:57:09;;;;;;;8.27;1.80;;;;;;;0.55;nan;94601.84;5016729;28;20623;-70
2021/01/24 04:59:36;;;;;;;3.75;1.73;;;;;;;0.55;nan;94601.84;5023171;28;20221;-70
2021/01/24 05:02:04;;;;;;;2.00;1.10;;;;;;;0.56;nan;94611.16;5016973;28;20682;-69
2021/01/24 05:04:30;;;;;;;1.63;1.30;;;;;;;0.54;nan;94617.28;5016724;28;20585;-69
2021/01/24 05:06:58;;;;;;;1.98;1.10;;;;;;;0.52;nan;94630.16;5029563;28;20534;-70
2021/01/24 05:09:25;;;;;;;1.38;1.20;;;;;;;0.53;nan;94629.22;5020686;28;20718;-71
2021/01/24 05:11:52;;;;;;;4.25;1.45;;;;;;;0.51;nan;94628.50;5015574;28;20326;-71
2021/01/24 05:14:21;;;;;;;1.90;1.40;;;;;;;0.47;nan;94631.31;5017389;28;20232;-70
2021/01/24 05:16:49;;;;;;;1.80;1.20;;;;;;;0.43;nan;94625.53;5015717;28;20589;-71
2021/01/24 05:19:16;;;;;;;2.45;1.88;;;;;;;0.41;nan;94626.53;5015247;28;20188;-71
2021/01/24 05:21:43;;;;;;;3.63;2.00;;;;;;;0.42;nan;94626.44;5016138;28;20716;-71
2021/01/24 05:24:12;;;;;;;2.92;1.65;;;;;;;0.42;nan;94631.56;5015531;28;20196;-71
2021/01/24 05:26:42;;;;;;;9.25;2.40;;;;;;;0.30;nan;94634.78;5016049;28;20228;-70
2021/01/24 05:29:19;;;;;;;7.43;2.20;;;;;;;0.23;nan;94625.78;5016367;28;20240;-70
2021/01/24 05:31:46;;;;;;;8.30;2.45;;;;;;;0.17;nan;94627.84;5016180;28;20310;-71
2021/01/24 05:34:15;;;;;;;9.38;2.33;;;;;;;0.15;nan;94624.56;5016818;28;20659;-71
2021/01/24 05:36:42;;;;;;;4.50;1.30;;;;;;;0.17;nan;94632.97;5018549;28;20228;-70
2021/01/24 05:39:09;;;;;;;1.58;1.45;;;;;;;0.19;nan;94633.72;5016963;28;20519;-71
2021/01/24 05:41:37;;;;;;;1.92;1.13;;;;;;;0.22;nan;94631.81;5016085;28;20605;-70
2021/01/24 05:44:12;;;;;;;6.28;2.10;;;;;;;0.22;nan;94633.56;5020488;28;20219;-70
2021/01/24 05:46:40;;;;;;;4.45;1.95;;;;;;;0.29;nan;94638.25;5015928;28;20877;-70
2021/01/24 05:49:08;;;;;;;6.05;1.90;;;;;;;0.32;nan;94647.50;5018637;28;20547;-70
2021/01/24 05:51:35;;;;;;;2.42;1.42;;;;;;;0.27;nan;94657.97;5017270;28;20616;-71
2021/01/24 05:54:02;;;;;;;3.08;1.85;;;;;;;0.17;nan;94654.25;5017276;28;20276;-71
2021/01/24 05:56:29;;;;;;;3.40;2.15;;;;;;;0.10;nan;94665.69;5018735;28;20219;-70
2021/01/24 05:58:58;;;;;;;4.35;2.97;;;;;;;-0.03;nan;94662.16;5015761;28;20641;-71
2021/01/24 06:01:26;;;;;;;3.85;1.63;;;;;;;-0.09;nan;94664.19;5017810;28;20326;-71
2021/01/24 06:03:54;;;;;;;11.70;3.17;;;;;;;-0.12;nan;94677.94;5012878;28;20682;-71
2021/01/24 06:06:22;;;;;;;9.85;3.63;;;;;;;-0.13;nan;94671.19;5015374;28;20620;-70
2021/01/24 06:08:49;;;;;;;4.10;2.42;;;;;;;-0.08;nan;94682.00;5016102;28;20205;-70
2021/01/24 06:11:16;;;;;;;2.50;1.20;;;;;;;0.02;nan;94685.72;5015704;28;20343;-70
2021/01/24 06:13:46;;;;;;;5.45;2.10;;;;;;;0.05;nan;94695.81;5017117;28;20575;-71
2021/01/24 06:16:33;;;;;;;5.45;2.40;;;;;;;0.15;nan;94691.84;5014929;28;20550;-69
2021/01/24 06:19:04;;;;;;;4.22;2.72;;;;;;;0.16;nan;94693.50;5015927;28;20623;-71
2021/01/24 06:21:36;;;;;;;5.75;2.45;;;;;;;0.13;nan;94697.97;5016032;28;20681;-70
2021/01/24 06:24:08;;;;;;;10.57;2.30;;;;;;;0.17;nan;94700.28;5012328;28;20282;-71
2021/01/24 06:26:39;;;;;;;4.75;2.70;;;;;;;0.22;nan;94692.38;5015632;28;20227;-70
2021/01/24 06:29:08;;;;;;;2.28;1.40;;;;;;;0.25;nan;94698.13;5016081;28;20302;-71
2021/01/24 06:31:45;;;;;;;3.38;2.38;;;;;;;0.26;nan;94697.25;5017103;28;20227;-69
2021/01/24 06:34:12;;;;;;;5.85;2.40;;;;;;;0.30;nan;94698.72;5017129;28;20576;-71
2021/01/24 06:37:09;;;;;;;3.38;1.73;;;;;;;0.21;nan;94698.38;5014805;28;20248;-70
2021/01/24 06:39:41;;;;;;;6.32;1.83;;;;;;;0.16;nan;94697.81;5014191;28;20281;-70
2021/01/24 06:42:08;;;;;;;9.52;2.38;;;;;;;0.15;nan;94706.41;5017556;28;20259;-70
2021/01/24 06:44:39;;;;;;;3.60;1.40;;;;;;;0.17;nan;94689.22;5016030;28;20591;-71
2021/01/24 06:47:38;;;;;;;2.78;1.52;;;;;;;0.16;nan;94708.84;5015165;28;20244;-71
2021/01/24 06:50:26;;;;;;;2.10;1.27;;;;;;;0.17;nan;94707.94;5012362;28;20809;-72
2021/01/24 06:53:04;;;;;;;1.80;1.10;;;;;;;0.17;nan;94715.63;5018140;28;20212;-69
2021/01/24 06:55:32;;;;;;;8.63;1.85;;;;;;;0.18;nan;94712.19;5020501;28;20545;-69
2021/01/24 06:58:30;;;;;;;2.08;1.20;;;;;;;0.19;nan;94715.53;5019240;28;20196;-70
2021/01/24 07:01:22;;;;;;;5.95;2.25;;;;;;;0.19;nan;94725.78;5013411;28;20315;-70
2021/01/24 07:04:31;;;;;;;2.03;1.40;;;;;;;0.15;nan;94722.53;5018868;28;21176;-70
2021/01/24 07:06:59;;;;;;;4.75;3.28;;;;;;;0.17;nan;94730.97;5009716;28;20828;-70
2021/01/24 07:09:39;;;;;;;4.10;1.45;;;;;;;0.17;nan;94736.06;5015225;28;20528;-71
2021/01/24 07:12:07;;;;;;;2.80;1.80;;;;;;;0.20;nan;94756.38;5013284;28;20623;-72
2021/01/24 07:14:48;;;;;;;2.03;0.95;;;;;;;0.16;nan;94754.06;5012013;28;20282;-70
2021/01/24 07:17:17;;;;;;;2.08;1.30;;;;;;;0.20;nan;94764.06;5013800;28;20221;-71
2021/01/24 07:19:47;;;;;;;4.45;1.70;;;;;;;0.23;nan;94763.09;5014587;28;20530;-72
2021/01/24 07:22:15;;;;;;;4.78;1.75;;;;;;;0.19;nan;94769.25;5015635;28;20672;-74
2021/01/24 07:24:45;;;;;;;2.28;1.50;;;;;;;0.16;nan;94769.41;5015881;28;20196;-73
2021/01/24 07:27:13;;;;;;;5.30;1.60;;;;;;;0.13;nan;94764.44;5016451;28;20219;-72
2021/01/24 07:29:40;;;;;;;1.35;1.13;;;;;;;0.13;nan;94775.50;5015641;28;20211;-72
2021/01/24 07:32:09;;;;;;;2.00;1.65;;;;;;;0.17;nan;94784.66;5024449;28;20294;-70
2021/01/24 07:34:37;;;;;;;2.17;1.05;;;;;;;0.21;nan;94788.72;5026017;28;20210;-71
2021/01/24 07:37:05;;;;;;;5.13;1.92;;;;;;;0.25;nan;94779.97;5013909;28;20711;-69
2021/01/24 07:39:33;;;;;;;2.20;0.88;;;;;;;0.28;nan;94781.56;5012118;28;20223;-69
2021/01/24 07:42:01;;;;;;;2.88;1.40;;;;;;;0.25;nan;94776.59;5013808;28;20932;-69
2021/01/24 07:44:28;;;;;;;7.45;2.30;;;;;;;0.37;nan;94784.47;5016675;28;20299;-69
2021/01/24 07:46:55;;;;;;;1.67;0.98;;;;;;;0.61;nan;94778.06;5014760;28;20574;-68
2021/01/24 07:49:22;;;;;;;5.53;1.15;;;;;;;1.13;nan;94779.47;5013572;28;20205;-68
2021/01/24 07:51:49;;;;;;;2.92;1.30;;;;;;;1.67;nan;94784.06;5012662;28;20741;-69
2021/01/24 07:54:17;;;;;;;7.35;2.03;;;;;;;2.38;nan;94791.00;5014604;28;20232;-69
2021/01/24 07:56:45;;;;;;;3.40;2.15;;;;;;;2.76;nan;94792.06;5014130;28;20303;-69
2021/01/24 07:59:12;;;;;;;4.28;1.50;;;;;;;2.99;nan;94796.63;5014125;28;20902;-69
2021/01/24 08:01:40;;;;;;;3.72;1.30;;;;;;;3.12;nan;94788.97;5013647;28;20342;-71
2021/01/24 08:04:07;;;;;;;1.30;1.08;;;;;;;3.44;nan;94786.03;5013147;28;20201;-70
2021/01/24 08:06:35;;;;;;;5.95;1.77;;;;;;;3.55;nan;94788.75;5014738;28;20252;-69
2021/01/24 08:09:03;;;;;;;3.40;1.70;;;;;;;3.68;nan;94792.16;5014511;28;20293;-70
2021/01/24 08:11:31;;;;;;;1.80;1.40;;;;;;;3.87;nan;94787.50;5013405;28;20260;-69
2021/01/24 08:13:59;;;;;;;2.17;1.30;;;;;;;3.91;nan;94788.97;5010628;28;20271;-70
2021/01/24 08:16:29;;;;;;;4.75;1.45;;;;;;;4.18;nan;94797.41;5009526;28;20217;-70
2021/01/24 08:18:57;;;;;;;3.97;1.10;;;;;;;3.84;nan;94794.59;5009689;28;20258;-71
2021/01/24 08:21:25;;;;;;;1.80;1.25;;;;;;;3.35;nan;94771.19;5011611;28;20311;-71
2021/01/24 08:24:01;;;;;;;3.00;1.58;;;;;;;3.28;nan;94787.94;5014992;28;20545;-70
2021/01/24 08:26:28;;;;;;;4.63;1.10;;;;;;;3.34;nan;94792.69;5010379;28;20335;-71
2021/01/24 08:28:57;;;;;;;5.30;1.20;;;;;;;3.92;nan;94794.91;5013938;28;20226;-71
2021/01/24 08:31:24;;;;;;;3.90;1.50;;;;;;;4.64;nan;94790.88;5013373;28;20570;-70
2021/01/24 08:33:54;;;;;;;2.10;1.20;;;;;;;5.06;nan;94778.41;5012296;28;20270;-71
2021/01/24 08:36:23;;;;;;;5.05;1.60;;;;;;;4.84;nan;94798.03;5014614;28;20259;-72
2021/01/24 08:38:56;;;;;;;3.50;1.70;;;;;;;3.61;nan;94806.34;5014441;28;20612;-72
2021/01/24 08:41:29;;;;;;;3.08;1.38;;;;;;;2.51;nan;94803.91;5012704;28;20750;-70
2021/01/24 08:44:10;;;;;;;3.05;1.42;;;;;;;1.88;nan;94821.31;5012429;28;20284;-71
2021/01/24 08:46:39;;;;;;;3.67;1.58;;;;;;;1.62;nan;94821.16;5006614;28;20315;-69
2021/01/24 08:49:08;;;;;;;1.83;1.25;;;;;;;1.47;nan;94830.50;5013906;28;20207;-69
2021/01/24 08:51:46;;;;;;;3.38;1.42;;;;;;;1.21;nan;94805.50;5010182;28;20288;-70
2021/01/24 08:54:23;;;;;;;4.30;1.42;;;;;;;1.16;nan;94827.13;5012876;28;20561;-69
2021/01/24 08:56:51;;;;;;;4.60;1.80;;;;;;;1.04;nan;94838.88;5012604;28;20270;-69
2021/01/24 08:59:26;;;;;;;8.35;1.38;;;;;;;1.08;nan;94850.63;5012129;28;20570;-70
2021/01/24 09:01:56;;;;;;;5.43;1.95;;;;;;;0.98;nan;94849.44;5013593;28;20551;-69
2021/01/24 09:04:26;;;;;;;2.53;1.38;;;;;;;0.92;nan;94849.78;5017922;28;20193;-69
2021/01/24 09:07:01;;;;;;;1.83;1.30;;;;;;;0.91;nan;94848.13;5016163;28;20574;-71
2021/01/24 09:09:28;;;;;;;2.50;1.58;;;;;;;0.74;nan;94866.09;5016787;28;20706;-69
2021/01/24 09:11:56;;;;;;;3.08;2.25;;;;;;;0.70;nan;94864.63;5017078;28;20697;-70
2021/01/24 09:14:23;;;;;;;7.63;3.17;;;;;;;0.71;nan;94866.25;5016611;28;20647;-70
2021/01/24 09:17:10;;;;;;;4.20;1.85;;;;;;;0.60;nan;94872.84;5017329;28;20587;-70
2021/01/24 09:19:38;;;;;;;1.55;0.90;;;;;;;0.49;nan;94870.00;5017042;28;20219;-70
2021/01/24 09:22:06;;;;;;;5.88;2.38;;;;;;;0.34;nan;94846.03;5015704;28;20255;-69
2021/01/24 09:24:34;;;;;;;4.95;2.10;;;;;;;0.51;nan;94870.72;5016486;28;20246;-69
2021/01/24 09:27:02;;;;;;;1.45;1.33;;;;;;;0.53;nan;94877.44;5016480;28;20310;-69
2021/01/24 09:29:29;;;;;;;2.65;1.60;;;;;;;0.52;nan;94873.22;5015908;28;20651;-70
2021/01/24 09:31:56;;;;;;;3.67;2.15;;;;;;;0.63;nan;94878.63;5014101;28;20750;-70
2021/01/24 09:34:24;;;;;;;4.63;2.90;;;;;;;0.71;nan;94881.63;5016918;28;20733;-70
2021/01/24 09:36:51;;;;;;;3.78;2.00;;;;;;;0.82;nan;94884.44;5015175;28;20549;-69
2021/01/24 09:39:18;;;;;;;4.38;3.20;;;;;;;0.96;nan;94881.97;5014619;28;20228;-70
2021/01/24 09:41:45;;;;;;;8.88;1.95;;;;;;;1.07;nan;94874.56;5016430;28;20298;-70
2021/01/24 09:44:12;;;;;;;3.58;1.85;;;;;;;1.04;nan;94884.16;5016110;28;20584;-70
2021/01/24 09:46:39;;;;;;;2.20;1.52;;;;;;;1.07;nan;94882.25;5013995;28;20310;-70
2021/01/24 09:49:06;;;;;;;1.63;1.20;;;;;;;0.87;nan;94872.22;5015468;28;20296;-69
2021/01/24 09:51:33;;;;;;;3.90;1.60;;;;;;;1.01;nan;94905.63;5011294;28;20806;-70
2021/01/24 09:54:00;;;;;;;4.63;1.80;;;;;;;1.00;nan;94898.00;5013876;28;20199;-69
2021/01/24 09:56:28;;;;;;;1.70;1.30;;;;;;;1.11;nan;94900.84;5014356;28;20307;-70
2021/01/24 09:58:56;;;;;;;4.00;1.58;;;;;;;1.06;nan;94902.81;5016142;28;20189;-70
2021/01/24 10:01:24;;;;;;;3.70;1.60;;;;;;;0.82;nan;94881.88;5015718;28;20331;-68
2021/01/24 10:03:51;;;;;;;7.95;2.00;;;;;;;1.08;nan;94911.25;5015496;28;20240;-70
2021/01/24 10:06:20;;;;;;;7.82;4.40;;;;;;;1.13;nan;94910.13;5014036;28;20742;-69
2021/01/24 10:08:49;;;;;;;5.65;1.55;;;;;;;1.16;nan;94907.38;5015245;28;20671;-70
2021/01/24 10:11:16;;;;;;;5.75;1.33;;;;;;;1.13;nan;94912.69;5014099;28;20738;-68
2021/01/24 10:13:43;;;;;;;3.38;1.75;;;;;;;1.13;nan;94917.78;5015417;28;20478;-69
2021/01/24 10:16:10;;;;;;;6.47;1.48;;;;;;;1.20;nan;94906.28;5011790;28;20315;-70
2021/01/24 10:18:41;;;;;;;1.73;1.40;;;;;;;1.18;nan;94922.69;5016657;28;20577;-68
2021/01/24 10:21:08;;;;;;;2.97;1.33;;;;;;;1.22;nan;94913.91;5017545;28;20286;-70
2021/01/24 10:23:35;;;;;;;2.35;1.13;;;;;;;1.30;nan;94915.16;5017377;28;20280;-69
2021/01/24 10:26:03;;;;;;;2.67;1.13;;;;;;;1.31;nan;94919.38;5014569;28;20240;-70
2021/01/24 10:28:38;;;;;;;9.57;1.48;;;;;;;1.29;nan;94921.19;5011468;28;20250;-70
2021/01/24 10:31:05;;;;;;;1.42;0.82;;;;;;;1.30;nan;94912.59;5015450;28;20651;-70
2021/01/24 10:33:32;;;;;;;2.33;1.05;;;;;;;1.57;nan;94921.38;5015019;28;20600;-70
2021/01/24 10:35:59;;;;;;;1.55;1.05;;;;;;;1.79;nan;94921.00;5010583;28;20721;-70
2021/01/24 10:38:26;;;;;;;2.13;1.25;;;;;;;1.86;nan;94932.59;5016031;28;20282;-70
2021/01/24 10:40:55;;;;;;;5.82;2.30;;;;;;;1.65;nan;94919.22;5013838;28;20217;-69
2021/01/24 10:43:22;;;;;;;10.63;3.83;;;;;;;1.93;nan;94918.50;5015098;28;20718;-69
2021/01/24 10:45:49;;;;;;;2.08;1.30;;;;;;;1.89;nan;94923.00;5016169;28;20749;-70
2021/01/24 10:48:16;;;;;;;5.05;2.00;;;;;;;1.81;nan;94920.03;5014631;28;20196;-70
2021/01/24 10:50:43;;;;;;;3.50;1.90;;;;;;;1.91;nan;94931.41;5013235;28;20224;-71
2021/01/24 10:53:10;;;;;;;5.13;1.50;;;;;;;2.22;nan;94928.78;5014304;28;20564;-76
2021/01/24 10:55:37;;;;;;;1.45;0.80;;;;;;;2.28;nan;94933.56;5013754;28;20228;-76
2021/01/24 10:58:04;;;;;;;3.60;1.45;;;;;;;2.49;nan;94922.06;5014636;28;20205;-72
2021/01/24 11:00:32;;;;;;;2.35;1.80;;;;;;;2.75;nan;94933.41;5012642;28;20687;-72
2021/01/24 11:02:59;;;;;;;1.90;1.10;;;;;;;3.74;nan;94920.41;5010730;28;20674;-73
2021/01/24 11:05:26;;;;;;;2.08;1.10;;;;;;;3.64;nan;94934.75;5012086;28;20542;-70
2021/01/24 11:07:53;;;;;;;6.93;1.20;;;;;;;3.80;nan;94944.91;5013821;28;20223;-70
2021/01/24 11:10:20;;;;;;;2.78;1.10;;;;;;;3.52;nan;94958.66;5015461;28;20334;-70
2021/01/24 11:12:47;;;;;;;2.22;1.70;;;;;;;2.80;nan;94946.81;5015218;28;20640;-72
2021/01/24 11:15:14;;;;;;;3.90;1.63;;;;;;;2.42;nan;94949.00;5013994;28;20702;-73
2021/01/24 11:17:42;;;;;;;2.45;1.25;;;;;;;2.47;nan;94949.59;5015303;28;20192;-72
2021/01/24 11:20:10;;;;;;;2.33;1.20;;;;;;;2.12;nan;94955.88;5013365;28;20862;-73
2021/01/24 11:22:37;;;;;;;3.40;1.48;;;;;;;1.95;nan;94958.56;5014333;28;20654;-71
2021/01/24 11:25:05;;;;;;;1.70;1.15;;;;;;;1.87;nan;94959.88;5012553;28;20695;-72
2021/01/24 11:27:33;;;;;;;2.17;1.65;;;;;;;1.85;nan;94970.22;5013491;28;20285;-72
2021/01/24 11:29:59;;;;;;;3.33;1.83;;;;;;;1.73;nan;94959.81;5009097;28;20312;-72
2021/01/24 11:32:26;;;;;;;6.50;2.35;;;;;;;1.67;nan;94968.66;5012612;28;20680;-71
2021/01/24 11:35:09;;;;;;;3.78;1.17;;;;;;;1.77;nan;94959.56;5013613;28;20609;-71
2021/01/24 11:37:36;;;;;;;4.63;0.90;;;;;;;1.76;nan;94983.53;5011574;28;20683;-70
2021/01/24 11:40:03;;;;;;;2.50;1.30;;;;;;;1.74;nan;94964.84;5013488;28;20959;-71
2021/01/24 11:42:30;;;;;;;6.35;1.33;;;;;;;1.67;nan;94989.16;5013425;28;20756;-70
2021/01/24 11:44:57;;;;;;;1.65;0.80;;;;;;;1.68;nan;94979.72;5013222;28;20615;-71
2021/01/24 11:47:26;;;;;;;2.45;1.05;;;;;;;1.71;nan;94969.31;5014618;28;20284;-70
2021/01/24 11:50:01;;;;;;;4.05;1.40;;;;;;;1.80;nan;94985.03;5013465;28;20323;-70
2021/01/24 11:52:28;;;;;;;2.17;1.35;;;;;;;1.85;nan;94995.06;5011240;28;20867;-69
2021/01/24 11:54:55;;;;;;;5.65;1.67;;;;;;;1.69;nan;95002.72;5008567;28;20288;-69
2021/01/24 11:57:22;;;;;;;2.78;1.45;;;;;;;1.57;nan;95013.66;5012629;28;20492;-70
2021/01/24 11:59:49;;;;;;;1.85;1.13;;;;;;;1.42;nan;95009.31;5014282;28;20312;-72
2021/01/24 12:02:15;;;;;;;4.10;1.00;;;;;;;1.43;nan;95016.09;5014428;28;20287;-70
2021/01/24 12:04:42;;;;;;;2.75;1.70;;;;;;;1.44;nan;95004.09;5014375;28;20658;-70
2021/01/24 12:07:16;;;;;;;7.07;1.60;;;;;;;1.40;nan;95012.88;5015671;28;20523;-71
2021/01/24 12:09:44;;;;;;;4.78;1.65;;;;;;;1.46;nan;95007.41;5014021;28;20855;-70
2021/01/24 12:12:11;;;;;;;2.67;1.55;;;;;;;1.42;nan;95001.63;5012622;28;20337;-70